createdAt,value
2018-12-19T00:01:31.384Z,13.63
2018-12-19T00:04:01.421Z,11.43
2018-12-19T00:06:30.383Z,11.47
2018-12-19T00:09:03.178Z,12.97
2018-12-19T00:11:31.439Z,10.60
2018-12-19T00:14:00.424Z,12.40
2018-12-19T00:16:29.609Z,12.20
2018-12-19T00:18:58.619Z,13.37
2018-12-19T00:21:28.640Z,11.77
2018-12-19T00:23:57.635Z,12.20
2018-12-19T00:26:27.655Z,13.07
2018-12-19T00:28:56.569Z,12.57
2018-12-19T00:31:25.721Z,10.70
2018-12-19T00:33:54.665Z,12.87
2018-12-19T00:36:23.776Z,13.37
2018-12-19T00:38:53.822Z,11.50
2018-12-19T00:41:23.272Z,12.10
2018-12-19T00:43:52.218Z,11.47
2018-12-19T00:46:21.149Z,12.27
2018-12-19T00:48:50.124Z,13.10
2018-12-19T00:51:19.249Z,12.63
2018-12-19T00:53:48.233Z,13.03
2018-12-19T00:56:17.097Z,11.03
2018-12-19T00:58:46.276Z,13.10
2018-12-19T01:01:15.447Z,11.70
2018-12-19T01:03:44.370Z,11.70
2018-12-19T01:06:14.317Z,14.07
2018-12-19T01:08:43.194Z,12.03
2018-12-19T01:11:12.079Z,12.87
2018-12-19T01:13:45.277Z,10.60
2018-12-19T01:16:14.374Z,12.30
2018-12-19T01:18:43.234Z,10.77
2018-12-19T01:21:12.145Z,10.87
2018-12-19T01:23:45.014Z,11.13
2018-12-19T01:26:13.972Z,14.00
2018-12-19T01:28:42.909Z,12.40
2018-12-19T01:31:12.042Z,11.67
2018-12-19T01:33:40.931Z,13.60
2018-12-19T01:36:10.000Z,11.63
2018-12-19T01:38:38.870Z,11.83
2018-12-19T01:41:07.796Z,11.37
2018-12-19T01:43:36.863Z,13.87
2018-12-19T01:46:07.014Z,11.13
2018-12-19T01:48:35.976Z,12.10
2018-12-19T01:51:05.123Z,11.57
2018-12-19T01:53:34.273Z,12.33
2018-12-19T01:56:03.810Z,12.27
2018-12-19T01:58:32.861Z,11.90
2018-12-19T02:01:03.922Z,12.50
2018-12-19T02:03:32.999Z,12.00
2018-12-19T02:06:03.037Z,12.33
2018-12-19T02:08:32.013Z,12.00
2018-12-19T02:11:01.399Z,12.80
2018-12-19T02:13:30.353Z,12.40
2018-12-19T02:15:59.564Z,12.17
2018-12-19T02:18:28.493Z,12.40
2018-12-19T02:20:57.416Z,12.53
2018-12-19T02:23:26.273Z,12.10
2018-12-19T02:25:55.313Z,11.33
2018-12-19T02:28:25.184Z,11.03
2018-12-19T02:30:54.190Z,11.63
2018-12-19T02:33:37.735Z,12.30
2018-12-19T02:36:06.659Z,12.30
2018-12-19T02:38:35.558Z,12.10
2018-12-19T02:41:04.774Z,12.67
2018-12-19T02:43:33.706Z,11.83
2018-12-19T02:46:02.875Z,12.20
2018-12-19T02:48:31.942Z,11.47
2018-12-19T02:51:01.477Z,11.63
2018-12-19T02:53:30.598Z,12.70
2018-12-19T02:55:59.717Z,11.20
2018-12-19T02:58:28.677Z,10.20
2018-12-19T03:00:57.621Z,11.63
2018-12-19T03:03:26.724Z,11.93
2018-12-19T03:05:56.664Z,10.67
2018-12-19T03:08:25.595Z,11.70
2018-12-19T03:10:54.881Z,11.57
2018-12-19T03:13:23.769Z,10.97
2018-12-19T03:15:52.734Z,11.97
2018-12-19T03:18:21.867Z,11.33
2018-12-19T03:20:50.864Z,12.17
2018-12-19T03:23:19.890Z,12.73
2018-12-19T03:25:48.985Z,12.47
2018-12-19T03:28:17.953Z,12.07
2018-12-19T03:30:47.039Z,12.63
2018-12-19T03:33:15.961Z,12.50
2018-12-19T03:35:45.036Z,10.63
2018-12-19T03:38:18.132Z,12.53
2018-12-19T03:40:47.214Z,10.87
2018-12-19T03:43:16.090Z,10.80
2018-12-19T03:45:45.127Z,10.83
2018-12-19T03:48:18.289Z,11.10
2018-12-19T03:50:47.235Z,10.20
2018-12-19T03:53:16.256Z,10.57
2018-12-19T03:55:45.275Z,11.67
2018-12-19T03:58:14.352Z,9.87
2018-12-19T04:00:43.379Z,11.07
2018-12-19T04:03:12.265Z,10.10
2018-12-19T04:05:41.329Z,10.43
2018-12-19T04:08:10.333Z,10.17
2018-12-19T04:10:39.425Z,10.37
2018-12-19T04:13:08.609Z,10.30
2018-12-19T04:15:37.649Z,10.87
2018-12-19T04:18:06.619Z,10.87
2018-12-19T04:20:35.507Z,10.43
2018-12-19T04:23:04.399Z,10.60
2018-12-19T04:25:33.323Z,10.20
2018-12-19T04:28:02.531Z,10.40
2018-12-19T04:30:31.584Z,11.27
2018-12-19T04:33:00.664Z,10.80
2018-12-19T04:35:29.583Z,11.57
2018-12-19T04:37:58.609Z,12.00
2018-12-19T04:40:27.655Z,11.53
2018-12-19T04:42:56.646Z,11.43
2018-12-19T04:45:25.584Z,12.67
2018-12-19T04:47:54.614Z,12.13
2018-12-19T04:50:23.513Z,12.07
2018-12-19T04:52:53.467Z,13.10
2018-12-19T04:55:22.517Z,11.93
2018-12-19T04:57:51.510Z,13.17
2018-12-19T05:00:20.505Z,11.97
2018-12-19T05:02:49.427Z,11.97
2018-12-19T05:05:18.334Z,13.10
2018-12-19T05:07:48.693Z,12.50
2018-12-19T05:10:17.873Z,13.30
2018-12-19T05:12:46.890Z,13.90
2018-12-19T05:15:16.655Z,12.80
2018-12-19T05:17:45.758Z,13.07
2018-12-19T05:20:14.926Z,12.97
2018-12-19T05:22:43.994Z,12.43
2018-12-19T05:25:14.160Z,12.93
2018-12-19T05:27:43.166Z,13.20
2018-12-19T05:30:12.368Z,12.77
2018-12-19T05:32:41.332Z,12.30
2018-12-19T05:35:10.519Z,11.90
2018-12-19T05:37:39.510Z,11.13
2018-12-19T05:40:09.489Z,12.23
2018-12-19T05:42:38.598Z,11.73
2018-12-19T05:45:08.719Z,12.00
2018-12-19T05:47:37.898Z,12.37
2018-12-19T05:50:08.510Z,11.17
2018-12-19T05:52:38.742Z,11.47
2018-12-19T05:55:07.861Z,11.80
2018-12-19T05:57:37.098Z,11.70
2018-12-19T06:00:07.809Z,10.80
2018-12-19T06:02:36.833Z,10.87
2018-12-19T06:05:06.409Z,10.73
2018-12-19T06:07:36.187Z,11.20
2018-12-19T06:10:05.628Z,10.77
2018-12-19T06:12:34.546Z,10.40
2018-12-19T06:15:04.323Z,11.00
2018-12-19T06:17:33.260Z,10.73
2018-12-19T06:20:02.345Z,11.10
2018-12-19T06:22:31.450Z,10.57
2018-12-19T06:25:00.394Z,11.10
2018-12-19T06:27:29.411Z,12.57
2018-12-19T06:29:58.400Z,11.30
2018-12-19T06:32:27.298Z,11.93
2018-12-19T06:34:56.418Z,11.83
2018-12-19T06:37:25.450Z,11.33
2018-12-19T06:39:54.417Z,11.47
2018-12-19T06:42:23.437Z,12.47
2018-12-19T06:44:52.381Z,12.87
2018-12-19T06:47:21.456Z,11.07
2018-12-19T06:49:50.316Z,11.70
2018-12-19T06:52:19.320Z,11.80
2018-12-19T06:54:48.332Z,12.00
2018-12-19T06:57:17.310Z,13.97
2018-12-19T06:59:46.334Z,14.67
2018-12-19T07:02:15.351Z,13.93
2018-12-19T07:04:44.392Z,13.10
2018-12-19T07:07:14.482Z,12.67
2018-12-19T07:09:44.204Z,12.30
2018-12-19T07:12:13.122Z,12.90
2018-12-19T07:14:42.029Z,12.50
2018-12-19T07:17:11.150Z,11.60
2018-12-19T07:19:40.109Z,12.30
2018-12-19T07:22:08.986Z,12.17
2018-12-19T07:24:38.040Z,12.57
2018-12-19T07:27:06.997Z,12.33
2018-12-19T07:29:36.044Z,12.40
2018-12-19T07:32:04.980Z,11.00
2018-12-19T07:34:34.049Z,11.37
2018-12-19T07:37:02.973Z,12.43
2018-12-19T07:39:32.078Z,12.70
2018-12-19T07:42:01.485Z,12.67
2018-12-19T07:44:30.675Z,12.07
2018-12-19T07:46:59.787Z,12.47
2018-12-19T07:49:28.809Z,11.93
2018-12-19T07:51:57.983Z,11.63
2018-12-19T07:54:26.907Z,11.80
2018-12-19T07:56:55.963Z,10.77
2018-12-19T07:59:24.845Z,11.20
2018-12-19T08:01:53.931Z,11.40
2018-12-19T08:04:23.311Z,10.53
2018-12-19T08:06:52.516Z,10.17
2018-12-19T08:09:21.698Z,10.93
2018-12-19T08:11:50.861Z,10.33
2018-12-19T08:14:19.901Z,10.53
2018-12-19T08:16:49.171Z,10.77
2018-12-19T08:19:18.170Z,9.80
2018-12-19T08:21:47.098Z,10.27
2018-12-19T08:24:16.287Z,9.73
2018-12-19T08:26:45.291Z,9.20
2018-12-19T08:29:14.313Z,9.07
2018-12-19T08:31:43.569Z,9.30
2018-12-19T08:34:12.464Z,9.60
2018-12-19T08:36:41.936Z,10.17
2018-12-19T08:39:10.841Z,9.93
2018-12-19T08:41:40.525Z,9.90
2018-12-19T08:44:09.558Z,10.03
2018-12-19T08:46:38.398Z,9.00
2018-12-19T08:49:07.397Z,9.27
2018-12-19T08:51:36.377Z,9.97
2018-12-19T08:54:05.502Z,9.60
2018-12-19T08:56:34.414Z,9.43
2018-12-19T08:59:03.820Z,10.28
2018-12-19T09:01:32.873Z,9.50
2018-12-19T09:04:08.565Z,9.40
2018-12-19T09:06:37.559Z,9.97
2018-12-19T09:09:07.273Z,9.93
2018-12-19T09:11:36.477Z,9.40
2018-12-19T09:14:05.419Z,10.00
2018-12-19T09:16:34.410Z,16.83
2018-12-19T09:19:03.597Z,12.43
2018-12-19T09:21:32.599Z,12.40
2018-12-19T09:24:01.522Z,15.77
2018-12-19T09:26:30.478Z,11.33
2018-12-19T09:28:59.537Z,12.33
2018-12-19T09:31:28.458Z,21.23
2018-12-19T09:33:57.512Z,16.53
2018-12-19T09:36:26.539Z,13.23
2018-12-19T09:38:55.570Z,10.57
2018-12-19T09:41:24.581Z,10.63
2018-12-19T09:43:54.612Z,11.73
2018-12-19T09:46:23.450Z,10.30
2018-12-19T09:48:52.360Z,11.60
2018-12-19T09:51:21.325Z,9.73
2018-12-19T09:53:50.202Z,10.53
2018-12-19T09:56:19.083Z,9.87
2018-12-19T09:58:49.068Z,10.40
2018-12-19T10:01:17.936Z,11.30
2018-12-19T10:03:47.200Z,9.93
2018-12-19T10:06:16.046Z,10.17
2018-12-19T10:08:44.917Z,11.00
2018-12-19T10:11:18.717Z,10.30
2018-12-19T10:13:44.813Z,9.37
2018-12-19T10:16:13.653Z,9.43
2018-12-19T10:18:42.554Z,10.80
2018-12-19T10:21:11.413Z,9.90
2018-12-19T10:23:40.397Z,10.57
2018-12-19T10:26:12.411Z,9.20
2018-12-19T10:28:41.595Z,10.63
2018-12-19T10:31:10.753Z,10.57
2018-12-19T10:33:39.756Z,10.87
2018-12-19T10:36:08.778Z,9.83
2018-12-19T10:38:37.904Z,10.37
2018-12-19T10:41:06.940Z,10.43
2018-12-19T10:43:35.986Z,9.13
2018-12-19T10:46:05.314Z,8.27
2018-12-19T10:48:34.216Z,9.50
2018-12-19T10:51:04.080Z,9.40
2018-12-19T10:53:33.840Z,9.10
2018-12-19T10:56:03.005Z,9.43
2018-12-19T10:58:32.045Z,10.50
2018-12-19T11:01:01.906Z,11.20
2018-12-19T11:03:30.799Z,9.33
2018-12-19T11:05:59.990Z,9.47
2018-12-19T11:08:29.278Z,10.13
2018-12-19T11:10:58.346Z,10.83
2018-12-19T11:13:27.250Z,11.63
2018-12-19T11:15:56.154Z,10.27
2018-12-19T11:18:25.729Z,9.60
2018-12-19T11:20:54.886Z,11.27
2018-12-19T11:23:25.170Z,10.70
2018-12-19T11:25:54.174Z,12.33
2018-12-19T11:28:23.394Z,10.40
2018-12-19T11:30:52.397Z,11.33
2018-12-19T11:33:21.432Z,9.53
2018-12-19T11:35:50.560Z,8.47
2018-12-19T11:38:19.555Z,9.40
2018-12-19T11:40:49.772Z,9.53
2018-12-19T11:43:18.886Z,10.53
2018-12-19T11:45:47.887Z,9.23
2018-12-19T11:48:17.069Z,9.70
2018-12-19T11:50:46.059Z,8.40
2018-12-19T11:53:15.215Z,9.17
2018-12-19T11:55:44.299Z,8.80
2018-12-19T11:58:13.140Z,8.50
2018-12-19T12:00:42.056Z,8.07
2018-12-19T12:03:11.163Z,9.13
2018-12-19T12:05:40.370Z,9.53
2018-12-19T12:08:10.752Z,7.80
2018-12-19T12:10:39.713Z,7.97
2018-12-19T12:13:08.918Z,8.60
2018-12-19T12:15:37.998Z,8.13
2018-12-19T12:18:10.978Z,7.73
2018-12-19T12:20:39.988Z,8.40
2018-12-19T12:23:08.880Z,8.47
2018-12-19T12:25:37.800Z,8.37
2018-12-19T12:28:06.722Z,7.77
2018-12-19T12:30:35.602Z,7.43
2018-12-19T12:33:06.871Z,8.03
2018-12-19T12:35:37.892Z,8.03
2018-12-19T12:38:07.010Z,9.27
2018-12-19T12:40:36.938Z,7.63
2018-12-19T12:43:06.501Z,8.43
2018-12-19T12:45:35.400Z,8.73
2018-12-19T12:48:04.419Z,8.03
2018-12-19T12:50:33.484Z,7.60
2018-12-19T12:53:02.638Z,9.40
2018-12-19T12:55:31.740Z,8.23
2018-12-19T12:58:00.652Z,8.20
2018-12-19T13:00:29.751Z,7.90
2018-12-19T13:02:58.831Z,8.90
2018-12-19T13:05:28.069Z,8.70
2018-12-19T13:07:57.197Z,8.70
2018-12-19T13:10:26.888Z,8.33
2018-12-19T13:12:55.887Z,8.50
2018-12-19T13:15:30.106Z,8.00
2018-12-19T13:17:59.177Z,19.97
2018-12-19T13:20:28.258Z,14.97
2018-12-19T13:22:57.357Z,14.50
2018-12-19T13:25:26.418Z,12.10
2018-12-19T13:27:55.560Z,19.60
2018-12-19T13:30:24.991Z,12.43
2018-12-19T13:32:54.135Z,22.00
2018-12-19T13:35:23.997Z,17.97
2018-12-19T13:37:54.683Z,30.90
2018-12-19T13:40:24.548Z,12.17
2018-12-19T13:42:54.144Z,12.63
2018-12-19T13:45:24.033Z,11.13
2018-12-19T13:47:54.141Z,11.80
2018-12-19T13:50:24.913Z,9.37
2018-12-19T13:52:54.554Z,12.07
2018-12-19T13:55:24.454Z,9.70
2018-12-19T13:57:54.493Z,11.60
2018-12-19T14:00:24.897Z,7.67
2018-12-19T14:02:55.339Z,7.93
2018-12-19T14:05:25.170Z,7.73
2018-12-19T14:07:54.303Z,13.47
2018-12-19T14:10:25.744Z,10.70
2018-12-19T14:12:56.168Z,12.77
2018-12-19T14:15:25.757Z,24.33
2018-12-19T14:17:55.793Z,15.37
2018-12-19T14:20:25.113Z,20.30
2018-12-19T14:22:57.576Z,22.63
2018-12-19T14:25:27.338Z,25.63
2018-12-19T14:27:56.656Z,16.90
2018-12-19T14:30:25.801Z,10.43
2018-12-19T14:32:54.895Z,9.53
2018-12-19T14:35:24.907Z,14.33
2018-12-19T14:37:54.900Z,15.97
2018-12-19T14:40:23.839Z,10.73
2018-12-19T14:42:53.711Z,7.97
2018-12-19T14:45:22.923Z,8.20
2018-12-19T14:47:52.456Z,7.60
2018-12-19T14:50:21.633Z,8.93
2018-12-19T14:52:50.588Z,7.77
2018-12-19T14:55:19.858Z,7.37
2018-12-19T14:57:49.414Z,8.40
2018-12-19T15:00:19.246Z,8.40
2018-12-19T15:02:48.295Z,7.20
2018-12-19T15:05:17.418Z,8.27
2018-12-19T15:07:46.406Z,7.87
2018-12-19T15:10:15.422Z,9.00
2018-12-19T15:12:44.446Z,9.17
2018-12-19T15:15:14.166Z,8.17
2018-12-19T15:17:43.265Z,8.20
2018-12-19T15:20:12.226Z,7.80
2018-12-19T15:22:44.243Z,7.13
2018-12-19T15:25:13.265Z,8.10
2018-12-19T15:27:42.152Z,8.70
2018-12-19T15:30:11.071Z,8.03
2018-12-19T15:32:40.290Z,6.63
2018-12-19T15:35:09.713Z,18.83
2018-12-19T15:37:38.626Z,14.80
2018-12-19T15:40:08.085Z,12.13
2018-12-19T15:42:39.713Z,11.97
2018-12-19T15:45:10.199Z,10.20
2018-12-19T15:47:39.288Z,13.87
2018-12-19T15:50:08.813Z,15.17
2018-12-19T15:52:37.799Z,30.67
2018-12-19T15:55:06.769Z,12.77
2018-12-19T15:57:35.568Z,9.43
2018-12-19T16:00:04.760Z,9.07
2018-12-19T16:02:33.393Z,9.53
2018-12-19T16:05:02.176Z,9.27
2018-12-19T16:07:30.650Z,8.13
2018-12-19T16:09:59.208Z,8.00
2018-12-19T16:12:27.731Z,8.43
2018-12-19T16:14:56.231Z,8.70
2018-12-19T16:17:24.863Z,8.37
2018-12-19T16:19:53.336Z,7.80
2018-12-19T16:22:21.859Z,8.10
2018-12-19T16:24:50.357Z,9.37
2018-12-19T16:27:18.849Z,8.50
2018-12-19T16:29:47.350Z,8.57
2018-12-19T16:32:15.828Z,7.43
2018-12-19T16:34:44.782Z,8.13
2018-12-19T16:37:13.583Z,8.37
2018-12-19T16:39:42.256Z,9.63
2018-12-19T16:42:10.743Z,8.57
2018-12-19T16:44:39.299Z,8.07
2018-12-19T16:47:07.779Z,8.97
2018-12-19T16:49:36.284Z,8.43
2018-12-19T16:52:04.846Z,8.67
2018-12-19T16:54:33.377Z,10.23
2018-12-19T16:57:02.130Z,9.07
2018-12-19T16:59:30.611Z,8.77
2018-12-19T17:01:59.105Z,8.93
2018-12-19T17:04:27.628Z,8.20
2018-12-19T17:06:57.311Z,7.83
2018-12-19T17:09:26.062Z,9.17
2018-12-19T17:11:54.575Z,10.00
2018-12-19T17:14:23.378Z,9.33
2018-12-19T17:16:51.865Z,9.60
2018-12-19T17:19:20.374Z,10.10
2018-12-19T17:21:48.862Z,10.47
2018-12-19T17:24:17.558Z,8.90
2018-12-19T17:26:46.063Z,9.57
2018-12-19T17:29:14.577Z,9.33
2018-12-19T17:31:43.079Z,9.43
2018-12-19T17:34:11.620Z,10.20
2018-12-19T17:36:40.116Z,10.77
2018-12-19T17:39:08.615Z,11.23
2018-12-19T17:41:37.121Z,10.93
2018-12-19T17:44:05.658Z,11.20
2018-12-19T17:46:35.263Z,11.33
2018-12-19T17:49:03.809Z,11.30
2018-12-19T17:51:32.290Z,11.93
2018-12-19T17:54:01.300Z,11.00
2018-12-19T17:56:29.809Z,11.07
2018-12-19T17:58:58.309Z,11.33
2018-12-19T18:01:26.790Z,11.80
2018-12-19T18:03:55.290Z,10.60
2018-12-19T18:06:24.192Z,11.37
2018-12-19T18:08:52.715Z,11.27
2018-12-19T18:11:21.219Z,11.07
2018-12-19T18:13:50.172Z,11.03
2018-12-19T18:16:18.718Z,9.90
2018-12-19T18:18:47.258Z,11.00
2018-12-19T18:21:15.764Z,9.33
2018-12-19T18:23:44.302Z,10.20
2018-12-19T18:26:12.862Z,9.70
2018-12-19T18:28:41.368Z,9.47
2018-12-19T18:31:09.862Z,9.60
2018-12-19T18:33:38.378Z,9.70
2018-12-19T18:36:06.885Z,10.53
2018-12-19T18:38:35.417Z,10.53
2018-12-19T18:41:03.941Z,9.20
2018-12-19T18:43:32.443Z,9.57
2018-12-19T18:46:01.366Z,9.93
2018-12-19T18:48:29.841Z,10.33
2018-12-19T18:50:58.349Z,10.03
2018-12-19T18:53:26.935Z,9.80
2018-12-19T18:55:55.832Z,10.27
2018-12-19T18:58:24.375Z,9.63
2018-12-19T19:00:52.930Z,9.73
2018-12-19T19:03:21.476Z,10.23
2018-12-19T19:05:50.008Z,10.97
2018-12-19T19:08:18.582Z,9.97
2018-12-19T19:10:47.126Z,9.93
2018-12-19T19:13:19.615Z,11.73
2018-12-19T19:15:46.176Z,10.80
2018-12-19T19:18:14.755Z,9.47
2018-12-19T19:20:43.371Z,10.13
2018-12-19T19:23:11.918Z,9.73
2018-12-19T19:25:40.437Z,10.43
2018-12-19T19:28:08.995Z,10.00
2018-12-19T19:30:37.501Z,10.30
2018-12-19T19:33:06.027Z,10.40
2018-12-19T19:35:34.535Z,9.63
2018-12-19T19:38:03.078Z,10.23
2018-12-19T19:40:31.622Z,9.70
2018-12-19T19:43:00.113Z,9.57
2018-12-19T19:45:28.609Z,10.27
2018-12-19T19:47:57.124Z,9.90
2018-12-19T19:50:25.656Z,9.83
2018-12-19T19:52:54.140Z,10.07
2018-12-19T19:55:22.655Z,10.00
2018-12-19T19:57:51.136Z,8.83
2018-12-19T20:00:30.370Z,9.27
2018-12-19T20:02:58.849Z,8.97
2018-12-19T20:05:27.478Z,8.87
2018-12-19T20:07:55.988Z,11.07
2018-12-19T20:10:24.522Z,10.40
2018-12-19T20:12:53.020Z,9.77
2018-12-19T20:15:21.532Z,9.67
2018-12-19T20:17:50.070Z,8.63
2018-12-19T20:20:18.726Z,9.07
2018-12-19T20:22:47.217Z,9.37
2018-12-19T20:25:15.740Z,9.00
2018-12-19T20:27:44.328Z,9.77
2018-12-19T20:30:12.918Z,9.13
2018-12-19T20:32:41.408Z,9.47
2018-12-19T20:35:10.093Z,10.27
2018-12-19T20:37:38.753Z,9.63
2018-12-19T20:40:07.622Z,9.77
2018-12-19T20:42:36.713Z,9.57
2018-12-19T20:45:06.628Z,8.67
2018-12-19T20:47:40.552Z,9.50
2018-12-19T20:50:11.001Z,9.13
2018-12-19T20:52:41.560Z,8.87
2018-12-19T20:55:11.239Z,9.70
2018-12-19T20:57:40.222Z,9.37
2018-12-19T21:00:10.731Z,9.83
2018-12-19T21:02:40.755Z,9.87
2018-12-19T21:05:13.289Z,9.90
2018-12-19T21:07:41.844Z,9.40
2018-12-19T21:10:11.239Z,8.63
2018-12-19T21:12:42.983Z,9.47
2018-12-19T21:15:12.394Z,9.03
2018-12-19T21:17:46.562Z,9.13
2018-12-19T21:20:15.108Z,9.80
2018-12-19T21:22:44.601Z,9.73
2018-12-19T21:25:13.526Z,8.47
2018-12-19T21:27:42.177Z,9.30
2018-12-19T21:30:11.376Z,9.33
2018-12-19T21:32:41.461Z,9.70
2018-12-19T21:35:11.023Z,8.67
2018-12-19T21:37:42.038Z,10.07
2018-12-19T21:40:10.601Z,9.30
2018-12-19T21:42:39.545Z,9.40
2018-12-19T21:45:12.041Z,9.00
2018-12-19T21:47:41.534Z,9.77
2018-12-19T21:50:10.346Z,9.37
2018-12-19T21:52:39.342Z,9.43
2018-12-19T21:55:08.404Z,9.10
2018-12-19T21:57:37.210Z,9.10
2018-12-19T22:00:09.193Z,9.10
2018-12-19T22:02:37.760Z,10.03
2018-12-19T22:05:06.282Z,9.00
2018-12-19T22:07:35.144Z,8.83
2018-12-19T22:10:04.700Z,9.33
2018-12-19T22:12:34.027Z,9.00
2018-12-19T22:15:03.106Z,9.20
2018-12-19T22:17:37.772Z,9.37
2018-12-19T22:20:07.017Z,9.20
2018-12-19T22:22:35.676Z,9.37
2018-12-19T22:25:04.638Z,8.53
2018-12-19T22:27:33.332Z,8.33
2018-12-19T22:30:02.418Z,9.47
2018-12-19T22:32:31.135Z,9.10
2018-12-19T22:34:59.888Z,8.87
2018-12-19T22:37:28.694Z,10.30
2018-12-19T22:39:57.252Z,11.20
2018-12-19T22:42:25.904Z,10.33
2018-12-19T22:44:54.471Z,10.13
2018-12-19T22:47:23.141Z,12.23
2018-12-19T22:49:52.189Z,10.73
2018-12-19T22:52:20.718Z,10.97
2018-12-19T22:54:49.264Z,11.37
2018-12-19T22:57:17.745Z,12.93
2018-12-19T22:59:46.871Z,10.20
2018-12-19T23:02:22.136Z,10.23
2018-12-19T23:04:51.102Z,9.73
2018-12-19T23:07:20.083Z,10.57
2018-12-19T23:09:49.276Z,10.57
2018-12-19T23:12:19.568Z,10.03
2018-12-19T23:14:48.637Z,10.57
2018-12-19T23:17:22.838Z,11.23
2018-12-19T23:19:52.159Z,10.60
2018-12-19T23:22:21.089Z,9.17
2018-12-19T23:24:49.955Z,9.67
2018-12-19T23:27:19.274Z,10.23
2018-12-19T23:29:49.186Z,10.50
2018-12-19T23:32:22.574Z,12.70
2018-12-19T23:34:52.460Z,9.57
2018-12-19T23:37:21.630Z,9.60
2018-12-19T23:39:50.883Z,11.73
2018-12-19T23:42:19.905Z,10.90
2018-12-19T23:44:48.796Z,14.57
2018-12-19T23:47:17.750Z,11.93
2018-12-19T23:49:46.636Z,11.57
2018-12-19T23:52:15.660Z,10.97
2018-12-19T23:54:45.028Z,11.17
2018-12-19T23:57:13.993Z,9.73
2018-12-19T23:59:43.777Z,12.10
